Time;durP1;ratioP1;P1;durP2;ratioP2;P2;SDS_P1;SDS_P2;PMS_P1;PMS_P2;Temp;Humidity;BMP_temperature;BMP_pressure;BME280_temperature;BME280_humidity;BME280_pressure;Samples;Min_cycle;Max_cycle;Signal;HPM_P1;HPM_P2
2020/12/07 00:00:41;;;;;;;12.85;5.32;;;4.00;76.60;;;;;;4916210;29;20366;-83
2020/12/07 00:03:07;;;;;;;13.18;5.07;;;4.00;76.70;;;;;;4899727;29;20397;-83
2020/12/07 00:05:32;;;;;;;12.02;5.18;;;4.00;76.70;;;;;;4892059;29;20033;-83
2020/12/07 00:08:00;;;;;;;14.18;5.15;;;4.00;76.70;;;;;;4899369;29;20032;-83
2020/12/07 00:10:26;;;;;;;14.00;5.57;;;4.10;77.00;;;;;;4899338;29;20028;-82
2020/12/07 00:12:52;;;;;;;12.38;5.32;;;4.10;77.00;;;;;;4916893;29;20032;-83
2020/12/07 00:15:17;;;;;;;13.25;5.05;;;4.10;76.50;;;;;;4889357;29;20048;-82
2020/12/07 00:17:43;;;;;;;12.98;4.75;;;4.10;76.70;;;;;;4899230;29;20047;-83
2020/12/07 00:20:09;;;;;;;11.30;4.63;;;4.10;76.70;;;;;;4899462;29;20044;-83
2020/12/07 00:22:35;;;;;;;12.85;4.43;;;4.10;76.60;;;;;;4884778;29;20069;-84
2020/12/07 00:25:01;;;;;;;13.73;4.35;;;4.10;76.70;;;;;;4884750;29;20107;-83
2020/12/07 00:27:30;;;;;;;11.02;4.38;;;4.10;76.40;;;;;;4898981;29;20393;-83
2020/12/07 00:29:56;;;;;;;9.80;4.30;;;4.00;76.70;;;;;;4916023;29;20031;-81
2020/12/07 00:32:22;;;;;;;13.05;5.30;;;4.10;76.70;;;;;;4884390;29;20392;-81
2020/12/07 00:34:49;;;;;;;14.65;5.20;;;4.10;76.90;;;;;;4916267;29;20400;-82
2020/12/07 00:37:15;;;;;;;10.63;4.38;;;4.10;77.60;;;;;;4898878;29;20030;-81
2020/12/07 00:39:41;;;;;;;12.52;5.00;;;4.10;77.30;;;;;;4900043;29;20032;-82
2020/12/07 00:42:09;;;;;;;11.27;4.20;;;4.20;76.80;;;;;;4914654;29;20495;-84
2020/12/07 00:44:38;;;;;;;12.35;4.80;;;4.20;76.80;;;;;;4915929;29;20201;-84
2020/12/07 00:47:05;;;;;;;10.35;4.28;;;4.20;76.70;;;;;;4914826;29;20107;-84
2020/12/07 00:49:31;;;;;;;9.98;3.92;;;4.10;76.70;;;;;;4898447;29;20039;-85
2020/12/07 00:51:57;;;;;;;10.75;3.88;;;4.20;77.00;;;;;;4916178;29;20103;-83
2020/12/07 00:54:23;;;;;;;9.50;4.07;;;4.20;77.00;;;;;;4886414;29;20127;-83
2020/12/07 00:56:56;;;;;;;10.75;3.97;;;4.30;77.10;;;;;;4904007;29;20024;-83
2020/12/07 00:59:23;;;;;;;9.35;3.80;;;4.30;76.90;;;;;;4919215;29;20377;-83
2020/12/07 01:01:50;;;;;;;9.35;4.25;;;4.30;77.00;;;;;;4903460;29;20110;-83
2020/12/07 01:04:15;;;;;;;10.57;3.92;;;4.30;76.90;;;;;;4902490;29;20565;-83
2020/12/07 01:06:45;;;;;;;10.25;3.97;;;4.30;76.80;;;;;;4902238;29;20040;-83
2020/12/07 01:09:17;;;;;;;10.05;4.60;;;4.30;77.00;;;;;;4919256;29;20134;-83
2020/12/07 01:11:44;;;;;;;7.88;3.22;;;4.30;76.90;;;;;;4917085;29;20056;-83
2020/12/07 01:14:13;;;;;;;13.63;4.47;;;4.30;77.00;;;;;;4901888;29;20076;-83
2020/12/07 01:16:40;;;;;;;9.95;4.45;;;4.30;76.90;;;;;;4919059;29;20020;-82
2020/12/07 01:19:07;;;;;;;9.82;4.03;;;4.40;77.00;;;;;;4901524;29;20055;-83
2020/12/07 01:21:36;;;;;;;10.23;4.18;;;4.30;76.70;;;;;;4902148;29;20032;-83
2020/12/07 01:24:02;;;;;;;10.15;4.30;;;4.30;76.70;;;;;;4917449;29;20047;-83
2020/12/07 01:26:30;;;;;;;10.20;3.80;;;4.30;76.50;;;;;;4893368;29;20083;-82
2020/12/07 01:28:56;;;;;;;8.20;3.53;;;4.30;76.80;;;;;;4924022;29;20133;-82
2020/12/07 01:31:21;;;;;;;7.30;3.00;;;4.20;76.60;;;;;;4898164;29;20134;-83
2020/12/07 01:33:47;;;;;;;9.77;3.50;;;4.20;76.60;;;;;;4910286;29;20080;-83
2020/12/07 01:36:13;;;;;;;10.30;3.70;;;4.20;76.70;;;;;;4901706;29;20035;-82
2020/12/07 01:38:39;;;;;;;9.82;4.07;;;4.20;76.80;;;;;;4918793;29;20107;-82
2020/12/07 01:41:04;;;;;;;7.07;2.90;;;4.20;76.90;;;;;;4901534;29;20047;-82
2020/12/07 01:43:30;;;;;;;9.10;3.63;;;4.20;76.40;;;;;;4901741;29;20036;-83
2020/12/07 01:45:56;;;;;;;8.52;3.20;;;4.10;76.50;;;;;;4917978;29;20745;-83
2020/12/07 01:48:25;;;;;;;6.78;3.10;;;4.10;76.70;;;;;;4901636;29;20079;-83
2020/12/07 01:50:52;;;;;;;5.35;2.55;;;4.10;76.60;;;;;;4909876;29;20385;-83
2020/12/07 01:53:19;;;;;;;6.80;2.80;;;4.00;76.30;;;;;;4918110;29;20384;-83
2020/12/07 01:55:44;;;;;;;6.88;2.67;;;4.00;76.50;;;;;;4916921;29;20123;-83
2020/12/07 01:58:11;;;;;;;6.53;3.00;;;4.00;76.70;;;;;;4886757;29;20111;-83
2020/12/07 02:00:36;;;;;;;6.18;2.67;;;4.00;77.10;;;;;;4910218;29;20469;-81
2020/12/07 02:03:02;;;;;;;8.43;3.45;;;4.10;77.10;;;;;;4900957;29;20028;-81
2020/12/07 02:05:29;;;;;;;7.63;3.15;;;4.10;77.00;;;;;;4907526;29;20028;-81
2020/12/07 02:08:13;;;;;;;7.70;3.05;;;4.20;77.20;;;;;;4901091;29;20020;-81
2020/12/07 02:10:39;;;;;;;7.78;3.17;;;4.20;77.20;;;;;;4900414;29;20051;-81
2020/12/07 02:13:05;;;;;;;6.80;2.80;;;4.20;76.70;;;;;;4887281;29;20470;-82
2020/12/07 02:15:31;;;;;;;6.22;2.70;;;4.10;76.40;;;;;;4900846;29;20047;-82
2020/12/07 02:17:57;;;;;;;4.47;1.92;;;4.10;76.70;;;;;;4900635;29;20441;-81
2020/12/07 02:20:23;;;;;;;5.85;2.60;;;4.10;76.70;;;;;;4901039;29;20100;-82
2020/12/07 02:22:48;;;;;;;7.47;3.10;;;4.00;76.30;;;;;;4885937;29;20130;-82
2020/12/07 02:25:14;;;;;;;7.80;3.33;;;4.00;77.40;;;;;;4901137;29;20064;-82
2020/12/07 02:27:40;;;;;;;9.15;3.40;;;4.00;76.90;;;;;;4886142;29;20047;-82
2020/12/07 02:30:05;;;;;;;7.30;3.22;;;4.00;77.00;;;;;;4901230;29;20020;-82
2020/12/07 02:32:31;;;;;;;9.25;3.45;;;4.00;77.00;;;;;;4915999;29;20545;-82
2020/12/07 02:34:56;;;;;;;9.55;3.78;;;4.10;77.20;;;;;;4902891;29;20036;-82
2020/12/07 02:37:26;;;;;;;9.13;3.65;;;4.10;77.10;;;;;;4917282;29;20047;-83
2020/12/07 02:39:52;;;;;;;11.52;4.13;;;4.10;77.10;;;;;;4908966;29;20028;-82
2020/12/07 02:42:17;;;;;;;8.85;3.67;;;4.10;77.00;;;;;;4917060;29;20079;-83
2020/12/07 02:44:43;;;;;;;7.78;3.40;;;4.20;77.00;;;;;;4907305;29;20032;-82
2020/12/07 02:47:08;;;;;;;7.28;3.17;;;4.20;77.10;;;;;;4886345;29;20024;-82
2020/12/07 02:49:34;;;;;;;8.52;3.25;;;4.20;77.10;;;;;;4900361;29;20068;-82
2020/12/07 02:51:59;;;;;;;10.63;3.30;;;4.20;77.00;;;;;;4887198;29;20050;-82
2020/12/07 02:54:25;;;;;;;7.35;3.20;;;4.20;76.80;;;;;;4899675;29;20043;-85
2020/12/07 02:56:51;;;;;;;7.28;3.13;;;4.20;76.90;;;;;;4900512;29;20084;-84
2020/12/07 02:59:16;;;;;;;9.23;3.30;;;4.20;77.10;;;;;;4917062;29;20031;-84
2020/12/07 03:01:42;;;;;;;7.55;3.30;;;4.20;77.20;;;;;;4900326;29;20032;-85
2020/12/07 03:04:07;;;;;;;7.25;3.20;;;4.20;77.00;;;;;;4915498;29;20040;-85
2020/12/07 03:06:33;;;;;;;7.50;3.33;;;4.30;77.00;;;;;;4871142;29;20032;-84
2020/12/07 03:08:58;;;;;;;8.50;4.18;;;4.30;77.00;;;;;;4899943;29;20024;-85
2020/12/07 03:11:24;;;;;;;10.32;4.07;;;4.20;77.00;;;;;;4886665;29;20127;-85
2020/12/07 03:13:50;;;;;;;9.05;3.30;;;4.30;77.00;;;;;;4899889;29;20047;-85
2020/12/07 03:16:16;;;;;;;8.85;3.97;;;4.30;76.90;;;;;;4901783;29;20513;-85
2020/12/07 03:18:42;;;;;;;7.28;3.38;;;4.20;76.60;;;;;;4903397;29;20512;-85
2020/12/07 03:21:08;;;;;;;8.48;3.55;;;4.10;76.60;;;;;;4899927;29;20052;-85
2020/12/07 03:23:33;;;;;;;10.55;3.80;;;4.10;76.70;;;;;;4892399;29;20059;-86
2020/12/07 03:25:59;;;;;;;8.77;3.90;;;4.10;76.80;;;;;;4884248;29;20036;-86
2020/12/07 03:28:25;;;;;;;7.90;3.42;;;4.10;76.80;;;;;;4885149;29;20028;-85
2020/12/07 03:30:50;;;;;;;9.02;3.85;;;4.10;76.90;;;;;;4900009;29;20474;-85
2020/12/07 03:33:16;;;;;;;8.98;3.97;;;4.10;77.00;;;;;;4899844;29;20052;-85
2020/12/07 03:35:42;;;;;;;10.20;4.60;;;4.10;77.20;;;;;;4888871;29;20046;-84
2020/12/07 03:38:07;;;;;;;9.20;3.97;;;4.20;77.10;;;;;;4899732;29;20026;-85
2020/12/07 03:40:34;;;;;;;9.55;4.10;;;4.20;77.10;;;;;;4900932;29;20036;-85
2020/12/07 03:43:00;;;;;;;7.80;3.53;;;4.20;77.30;;;;;;4899478;29;20028;-85
2020/12/07 03:45:27;;;;;;;10.30;4.22;;;4.20;77.00;;;;;;4900425;29;20144;-85
2020/12/07 03:47:53;;;;;;;8.38;3.60;;;4.20;77.20;;;;;;4908257;29;20036;-86
2020/12/07 03:50:18;;;;;;;9.95;4.47;;;4.30;77.30;;;;;;4873948;29;20036;-85
2020/12/07 03:52:44;;;;;;;9.25;4.05;;;4.30;77.40;;;;;;4899520;29;20521;-82
2020/12/07 03:55:10;;;;;;;10.38;4.40;;;4.30;76.90;;;;;;4914738;29;20040;-82
2020/12/07 03:57:35;;;;;;;10.05;4.68;;;4.30;76.80;;;;;;4869452;29;20048;-81
2020/12/07 04:00:02;;;;;;;11.05;4.50;;;4.30;77.00;;;;;;4899586;29;20028;-84
2020/12/07 04:02:29;;;;;;;12.65;5.13;;;4.30;77.00;;;;;;4899466;29;20123;-84
2020/12/07 04:05:01;;;;;;;14.07;5.00;;;4.30;77.10;;;;;;4886229;29;20461;-84
2020/12/07 04:07:27;;;;;;;11.13;5.18;;;4.20;76.70;;;;;;4901065;29;20127;-84
2020/12/07 04:09:52;;;;;;;10.48;4.88;;;4.20;76.70;;;;;;4899987;29;20436;-85
2020/12/07 04:12:18;;;;;;;11.50;5.20;;;4.20;77.10;;;;;;4907999;29;20032;-83
2020/12/07 04:14:43;;;;;;;11.20;4.80;;;4.20;76.90;;;;;;4906719;29;20040;-84
2020/12/07 04:17:09;;;;;;;13.80;5.03;;;4.10;76.80;;;;;;4890570;29;20158;-83
2020/12/07 04:19:35;;;;;;;11.90;5.32;;;4.20;77.10;;;;;;4884978;29;20056;-84
2020/12/07 04:22:00;;;;;;;10.30;4.57;;;4.20;77.40;;;;;;4898909;29;20035;-83
2020/12/07 04:24:26;;;;;;;11.88;5.40;;;4.20;77.10;;;;;;4884811;29;20039;-83
2020/12/07 04:26:51;;;;;;;11.18;4.40;;;4.20;77.00;;;;;;4899027;29;21229;-83
2020/12/07 04:29:17;;;;;;;13.77;5.82;;;4.20;77.00;;;;;;4902756;29;20036;-82
2020/12/07 04:31:43;;;;;;;12.05;5.25;;;4.20;76.80;;;;;;4908916;29;20377;-83
2020/12/07 04:34:08;;;;;;;12.15;5.38;;;4.20;76.80;;;;;;4902534;29;20037;-82
2020/12/07 04:36:34;;;;;;;10.57;4.38;;;4.20;76.90;;;;;;4894010;29;20103;-82
2020/12/07 04:38:59;;;;;;;10.65;4.53;;;4.20;77.10;;;;;;4902667;29;20032;-82
2020/12/07 04:41:25;;;;;;;11.50;5.57;;;4.10;76.70;;;;;;4919796;29;20389;-83
2020/12/07 04:43:51;;;;;;;11.90;5.55;;;4.10;76.80;;;;;;4894400;29;20032;-82
2020/12/07 04:46:17;;;;;;;11.18;5.22;;;4.10;77.00;;;;;;4888834;29;20028;-82
2020/12/07 04:48:45;;;;;;;14.98;6.80;;;4.10;77.00;;;;;;4902617;29;20035;-83
2020/12/07 04:51:12;;;;;;;14.65;7.05;;;4.10;77.00;;;;;;4903748;29;20028;-82
2020/12/07 04:53:40;;;;;;;13.68;6.15;;;4.10;77.30;;;;;;4902258;29;20040;-83
2020/12/07 04:56:06;;;;;;;13.57;5.53;;;4.10;77.30;;;;;;4902248;29;20481;-82
2020/12/07 04:58:33;;;;;;;13.32;5.97;;;4.20;77.20;;;;;;4918012;29;20031;-82
2020/12/07 05:00:59;;;;;;;12.23;4.72;;;4.20;77.40;;;;;;4918858;29;20043;-82
2020/12/07 05:03:24;;;;;;;14.48;5.90;;;4.20;77.70;;;;;;4893957;29;20028;-82
2020/12/07 05:05:52;;;;;;;14.85;5.90;;;4.20;77.30;;;;;;4902113;29;20020;-82
2020/12/07 05:08:17;;;;;;;14.38;6.30;;;4.20;77.20;;;;;;4902481;29;20036;-83
2020/12/07 05:10:45;;;;;;;13.68;5.78;;;4.20;77.00;;;;;;4902090;29;20032;-83
2020/12/07 05:16:05;;;;;;;13.63;6.43;;;4.20;77.20;;;;;;4900542;29;20533;-83
2020/12/07 05:18:35;;;;;;;11.88;5.47;;;4.20;77.20;;;;;;4917528;29;20127;-83
2020/12/07 05:21:03;;;;;;;12.43;5.40;;;4.30;77.30;;;;;;4903052;29;20164;-82
2020/12/07 05:23:33;;;;;;;12.00;5.38;;;4.20;76.90;;;;;;4918958;29;20501;-81
2020/12/07 05:26:00;;;;;;;23.25;12.10;;;4.30;77.20;;;;;;4914425;29;20030;-82
2020/12/07 05:28:36;;;;;;;17.35;8.20;;;4.20;77.20;;;;;;4917438;29;20495;-82
2020/12/07 05:31:02;;;;;;;15.20;7.35;;;4.20;77.40;;;;;;4919012;29;20020;-83
2020/12/07 05:33:29;;;;;;;11.88;5.10;;;4.20;77.40;;;;;;4908382;29;20076;-82
2020/12/07 05:35:57;;;;;;;14.00;6.07;;;4.30;77.20;;;;;;4901905;29;20032;-83
2020/12/07 05:38:32;;;;;;;10.50;5.35;;;4.20;77.60;;;;;;4901140;29;20659;-81
2020/12/07 05:41:01;;;;;;;12.20;5.03;;;4.20;77.00;;;;;;4901060;29;20119;-81
2020/12/07 05:43:28;;;;;;;17.23;7.07;;;4.20;77.00;;;;;;4917513;29;20038;-83
2020/12/07 05:45:58;;;;;;;18.45;9.55;;;4.20;77.10;;;;;;4916981;29;20473;-83
2020/12/07 05:48:29;;;;;;;13.50;5.65;;;4.20;77.20;;;;;;4901944;29;20040;-83
2020/12/07 05:50:55;;;;;;;12.65;5.47;;;4.20;77.10;;;;;;4917210;29;20021;-85
2020/12/07 05:53:25;;;;;;;12.50;4.93;;;4.20;77.40;;;;;;4887711;29;20036;-84
2020/12/07 05:55:51;;;;;;;12.93;6.15;;;4.20;77.20;;;;;;4918267;29;20377;-84
2020/12/07 05:58:20;;;;;;;13.57;5.13;;;4.20;77.30;;;;;;4907937;29;20036;-84
2020/12/07 06:00:47;;;;;;;13.25;5.80;;;4.20;77.40;;;;;;4918272;29;20035;-84
2020/12/07 06:03:17;;;;;;;12.60;5.63;;;4.30;77.50;;;;;;4908480;29;20024;-84
2020/12/07 06:05:45;;;;;;;12.32;5.15;;;4.30;77.30;;;;;;4901049;29;20119;-84
2020/12/07 06:08:18;;;;;;;12.07;5.28;;;4.30;77.40;;;;;;4901260;29;20035;-84
2020/12/07 06:10:48;;;;;;;12.63;5.35;;;4.30;77.40;;;;;;4916551;29;20035;-84
2020/12/07 06:13:18;;;;;;;12.55;5.65;;;4.30;77.40;;;;;;4901130;29;20477;-84
2020/12/07 06:15:45;;;;;;;15.00;6.10;;;4.30;77.80;;;;;;4914567;29;20420;-88
2020/12/07 06:18:43;;;;;;;12.55;5.47;;;4.30;77.20;;;;;;4901089;29;20047;-89
2020/12/07 06:21:27;;;;;;;12.35;5.63;;;4.30;77.40;;;;;;4865440;29;20037;-94
2020/12/07 06:24:12;;;;;;;11.90;5.30;;;4.40;77.40;;;;;;4861459;29;20029;-93
2020/12/07 06:26:38;;;;;;;10.73;4.55;;;4.30;77.30;;;;;;4847667;29;20557;-93
2020/12/07 06:29:05;;;;;;;11.52;4.75;;;4.40;77.30;;;;;;4834272;29;20060;-88
2020/12/07 06:31:31;;;;;;;12.40;4.82;;;4.30;76.90;;;;;;4878785;29;20048;-89
2020/12/07 06:33:56;;;;;;;11.95;5.15;;;4.20;77.00;;;;;;4894683;29;20064;-89
2020/12/07 06:36:36;;;;;;;11.43;5.00;;;4.20;77.10;;;;;;4900950;29;20036;-88
2020/12/07 06:39:07;;;;;;;11.35;4.78;;;4.30;77.50;;;;;;4897381;29;20398;-88
2020/12/07 06:41:41;;;;;;;14.32;5.90;;;4.30;77.30;;;;;;4904001;29;20028;-92
2020/12/07 06:44:14;;;;;;;10.13;4.40;;;4.20;77.20;;;;;;4901635;29;20056;-92
2020/12/07 06:47:06;;;;;;;11.48;5.28;;;4.20;76.80;;;;;;4900800;29;20036;-80
2020/12/07 06:49:55;;;;;;;11.07;5.05;;;4.10;76.70;;;;;;4902704;29;20580;-88
2020/12/07 06:52:23;;;;;;;10.88;4.68;;;4.10;77.00;;;;;;4900843;29;20030;-90
2020/12/07 06:55:14;;;;;;;8.25;3.45;;;4.10;77.10;;;;;;4903336;29;20032;-93
2020/12/07 06:57:47;;;;;;;8.20;3.50;;;4.20;77.40;;;;;;4911996;29;20024;-95
2020/12/07 07:00:21;;;;;;;11.63;4.85;;;4.20;77.20;;;;;;4927701;29;20024;-92
2020/12/07 07:02:57;;;;;;;10.35;4.55;;;4.20;77.40;;;;;;4903222;29;20052;-96
2020/12/07 07:05:29;;;;;;;11.57;4.72;;;4.30;77.70;;;;;;4905044;29;20028;-92
2020/12/07 07:07:56;;;;;;;11.43;4.97;;;4.30;77.50;;;;;;4906982;29;20452;-95
2020/12/07 07:10:23;;;;;;;11.77;4.72;;;4.30;77.60;;;;;;4885907;29;20111;-94
2020/12/07 07:12:49;;;;;;;10.32;4.07;;;4.40;77.50;;;;;;4904324;29;20039;-93
2020/12/07 07:15:16;;;;;;;10.35;4.10;;;4.30;77.10;;;;;;4895735;29;20051;-88
2020/12/07 07:17:44;;;;;;;9.95;4.07;;;4.30;77.30;;;;;;4903328;29;20028;-91
2020/12/07 07:20:11;;;;;;;9.82;4.18;;;4.40;77.70;;;;;;4916920;29;20102;-93
2020/12/07 07:22:41;;;;;;;8.98;3.88;;;4.50;77.60;;;;;;4901518;29;20035;-93
2020/12/07 07:30:23;;;;;;;10.43;4.20;;;4.40;77.40;;;;;;4922573;29;19912;-93
2020/12/07 07:32:51;;;;;;;9.20;3.88;;;4.40;77.30;;;;;;4896675;29;20039;-94
2020/12/07 07:35:19;;;;;;;9.20;3.97;;;4.40;77.30;;;;;;4901381;29;20048;-93
2020/12/07 07:37:45;;;;;;;8.90;3.40;;;4.40;77.10;;;;;;4901733;29;20477;-92
2020/12/07 07:40:18;;;;;;;8.52;3.72;;;4.40;77.20;;;;;;4891874;29;20060;-92
2020/12/07 07:43:16;;;;;;;6.53;3.03;;;4.40;77.20;;;;;;4900858;29;20059;-91
2020/12/07 07:45:44;;;;;;;8.30;3.30;;;4.30;77.20;;;;;;4878593;29;20115;-95
2020/12/07 07:51:53;;;;;;;;;;;4.50;77.50;;;;;;4918420;29;20032;-95
2020/12/07 08:17:18;;;;;;;8.25;3.38;;;4.80;77.80;;;;;;4923144;29;20152;-94
2020/12/07 08:19:50;;;;;;;8.68;3.58;;;4.90;78.00;;;;;;4904865;29;20055;-93
2020/12/07 08:22:18;;;;;;;7.63;3.22;;;4.90;78.10;;;;;;4906182;29;20016;-93
2020/12/07 08:24:57;;;;;;;6.72;2.80;;;5.10;78.30;;;;;;4906611;29;20492;-93
2020/12/07 08:27:31;;;;;;;8.23;3.15;;;5.20;78.20;;;;;;4907687;29;20088;-92
2020/12/07 08:30:07;;;;;;;8.27;2.83;;;5.20;78.30;;;;;;4910770;29;20026;-92
2020/12/07 08:32:33;;;;;;;6.82;2.95;;;5.30;78.10;;;;;;4905832;29;20048;-92
2020/12/07 08:34:59;;;;;;;7.15;2.85;;;5.40;78.10;;;;;;4905268;29;20040;-91
2020/12/07 08:37:25;;;;;;;7.80;2.95;;;5.40;78.20;;;;;;4896294;29;20028;-91
2020/12/07 08:39:52;;;;;;;5.38;2.65;;;5.40;78.10;;;;;;4903039;29;20396;-83
2020/12/07 08:42:19;;;;;;;7.57;3.08;;;5.40;77.80;;;;;;4902332;29;20032;-84
2020/12/07 08:44:44;;;;;;;5.90;2.50;;;5.60;78.10;;;;;;4902699;29;20028;-83
2020/12/07 08:47:11;;;;;;;8.90;3.38;;;5.60;78.10;;;;;;4902345;29;20026;-83
2020/12/07 08:49:37;;;;;;;6.30;2.83;;;5.70;78.20;;;;;;4902953;29;20377;-85
2020/12/07 08:52:03;;;;;;;9.20;2.85;;;5.70;78.10;;;;;;4887535;29;20473;-84
2020/12/07 08:54:29;;;;;;;7.88;3.25;;;5.80;77.90;;;;;;4902764;29;20040;-85
2020/12/07 08:56:55;;;;;;;8.18;3.20;;;5.90;78.00;;;;;;4893430;29;20123;-82
2020/12/07 08:59:26;;;;;;;6.80;3.08;;;5.90;78.20;;;;;;4891672;29;20388;-83
2020/12/07 09:01:54;;;;;;;7.82;3.10;;;6.00;78.40;;;;;;4899443;29;20024;-82
2020/12/07 09:04:20;;;;;;;7.82;3.28;;;6.10;79.00;;;;;;4902640;29;20095;-82
2020/12/07 09:06:49;;;;;;;8.00;3.40;;;6.20;78.20;;;;;;4902446;29;20028;-83
2020/12/07 09:09:14;;;;;;;8.27;3.42;;;6.30;78.40;;;;;;4888852;29;20035;-83
2020/12/07 09:11:49;;;;;;;7.13;3.08;;;6.40;78.20;;;;;;4887767;29;20032;-83
2020/12/07 09:14:14;;;;;;;9.38;3.67;;;6.30;78.00;;;;;;4904837;29;20040;-81
2020/12/07 09:16:46;;;;;;;9.07;3.75;;;6.40;77.70;;;;;;4902542;29;20484;-83
2020/12/07 09:19:11;;;;;;;8.73;3.72;;;6.40;77.80;;;;;;4893247;29;20055;-82
2020/12/07 09:21:37;;;;;;;8.70;3.85;;;6.40;77.90;;;;;;4901965;29;20020;-83
2020/12/07 09:24:07;;;;;;;12.02;4.50;;;6.40;77.70;;;;;;4902212;29;20095;-83
2020/12/07 09:26:33;;;;;;;10.77;4.60;;;6.40;77.60;;;;;;4886721;29;20111;-83
2020/12/07 09:28:58;;;;;;;9.98;4.35;;;6.40;77.80;;;;;;4901881;29;20115;-84
2020/12/07 09:31:24;;;;;;;9.07;3.90;;;6.40;77.90;;;;;;4888631;29;20035;-85
2020/12/07 09:33:52;;;;;;;10.25;5.05;;;6.50;78.00;;;;;;4901745;29;20118;-82
2020/12/07 09:36:18;;;;;;;12.13;5.45;;;6.50;77.80;;;;;;4897592;29;20044;-82
2020/12/07 09:38:44;;;;;;;10.40;5.05;;;6.50;78.00;;;;;;4906223;29;20022;-82
2020/12/07 09:41:09;;;;;;;12.10;5.28;;;6.60;78.10;;;;;;4910147;29;20032;-81
2020/12/07 09:43:36;;;;;;;10.90;5.30;;;6.60;78.00;;;;;;4907357;29;20056;-81
2020/12/07 09:46:01;;;;;;;10.35;4.60;;;6.70;78.30;;;;;;4901774;29;20487;-81
2020/12/07 09:48:27;;;;;;;10.85;4.60;;;6.70;78.00;;;;;;4901662;29;20032;-80
2020/12/07 09:50:53;;;;;;;10.77;4.30;;;6.70;77.80;;;;;;4901285;29;20119;-81
2020/12/07 09:53:19;;;;;;;10.00;4.40;;;6.70;78.00;;;;;;4917423;29;20040;-81
2020/12/07 09:55:46;;;;;;;11.38;4.93;;;6.80;77.90;;;;;;4901447;29;20055;-81
2020/12/07 09:58:12;;;;;;;9.40;4.43;;;6.70;77.70;;;;;;4893289;29;20025;-81
2020/12/07 10:00:38;;;;;;;11.10;4.65;;;6.80;78.00;;;;;;4901639;29;20059;-81
2020/12/07 10:03:06;;;;;;;9.63;4.95;;;6.90;78.10;;;;;;4886476;29;20047;-82
2020/12/07 10:05:31;;;;;;;9.85;4.40;;;6.90;78.10;;;;;;4901289;29;20473;-80
2020/12/07 10:08:00;;;;;;;9.32;4.25;;;7.00;78.20;;;;;;4887111;29;20148;-81
2020/12/07 10:10:25;;;;;;;11.40;4.18;;;7.10;78.40;;;;;;4901473;29;20020;-80
2020/12/07 10:12:51;;;;;;;10.48;4.15;;;7.20;78.40;;;;;;4901692;29;20673;-83
2020/12/07 10:15:17;;;;;;;8.77;3.80;;;7.30;78.60;;;;;;4900421;29;20036;-82
2020/12/07 10:17:42;;;;;;;9.88;4.20;;;7.30;78.20;;;;;;4900657;29;20024;-82
2020/12/07 10:22:57;;;;;;;8.63;3.47;;;7.60;79.00;;;;;;4917004;29;20509;-84
2020/12/07 10:25:22;;;;;;;7.93;3.60;;;7.80;78.60;;;;;;4921873;29;20071;-84
2020/12/07 10:27:59;;;;;;;8.63;3.42;;;7.80;78.00;;;;;;4900493;29;20052;-84
2020/12/07 10:30:37;;;;;;;9.07;3.55;;;7.70;77.50;;;;;;4900670;29;20095;-84
2020/12/07 10:33:04;;;;;;;9.30;3.70;;;7.70;77.90;;;;;;4903625;29;20076;-84
2020/12/07 10:35:30;;;;;;;8.75;3.50;;;7.80;78.40;;;;;;4900647;29;20040;-84
2020/12/07 10:37:56;;;;;;;8.98;3.50;;;7.90;78.30;;;;;;4900996;29;20032;-84
2020/12/07 10:40:21;;;;;;;8.18;3.47;;;8.00;78.80;;;;;;4886135;29;20491;-82
2020/12/07 10:42:47;;;;;;;9.60;3.63;;;8.00;78.50;;;;;;4900554;29;20483;-83
2020/12/07 10:45:13;;;;;;;7.88;3.53;;;8.20;78.40;;;;;;4900567;29;20032;-82
2020/12/07 10:47:38;;;;;;;8.68;3.60;;;8.20;78.30;;;;;;4900648;29;20030;-81
2020/12/07 10:50:04;;;;;;;8.73;3.83;;;8.30;78.10;;;;;;4891694;29;20036;-82
2020/12/07 10:52:29;;;;;;;8.10;3.30;;;8.30;78.00;;;;;;4900473;29;20436;-82
2020/12/07 10:54:57;;;;;;;8.70;3.50;;;8.30;77.90;;;;;;4900290;29;20043;-82
2020/12/07 10:57:22;;;;;;;9.93;3.28;;;8.40;78.00;;;;;;4886051;29;20484;-82
2020/12/07 10:59:48;;;;;;;9.45;3.40;;;8.40;77.80;;;;;;4900569;29;20032;-82
2020/12/07 11:02:14;;;;;;;7.38;3.30;;;8.50;78.50;;;;;;4899838;29;20024;-82
2020/12/07 11:04:40;;;;;;;8.63;3.75;;;8.70;78.70;;;;;;4900301;29;20031;-81
2020/12/07 11:07:12;;;;;;;10.50;3.80;;;8.70;78.40;;;;;;4899994;29;20397;-82
2020/12/07 11:09:38;;;;;;;7.50;3.22;;;8.80;78.40;;;;;;4899934;29;20047;-81
2020/12/07 11:12:09;;;;;;;7.05;3.20;;;9.00;78.70;;;;;;4916916;29;20462;-81
2020/12/07 11:14:35;;;;;;;7.00;3.20;;;9.10;78.50;;;;;;4899492;29;20040;-82
2020/12/07 11:17:01;;;;;;;7.55;3.10;;;9.20;78.20;;;;;;4915540;29;20020;-87
2020/12/07 11:19:26;;;;;;;5.47;2.42;;;9.20;78.00;;;;;;4914938;29;20087;-87
2020/12/07 11:21:52;;;;;;;7.22;2.63;;;9.20;78.00;;;;;;4899800;29;20028;-83
2020/12/07 11:24:18;;;;;;;5.40;2.47;;;9.30;78.00;;;;;;4907066;29;20032;-82
2020/12/07 11:26:43;;;;;;;6.63;2.70;;;9.20;77.50;;;;;;4899444;29;20028;-83
2020/12/07 11:29:09;;;;;;;6.60;2.75;;;9.20;76.80;;;;;;4895546;29;20105;-84
2020/12/07 11:31:34;;;;;;;7.82;3.20;;;9.00;76.70;;;;;;4899933;29;20414;-80
2020/12/07 11:34:00;;;;;;;6.50;2.60;;;9.00;77.80;;;;;;4899920;29;20052;-80
2020/12/07 11:36:26;;;;;;;6.63;2.85;;;9.10;78.00;;;;;;4891602;29;20100;-80
2020/12/07 11:39:06;;;;;;;6.75;2.70;;;9.10;77.20;;;;;;4900182;29;20025;-83
2020/12/07 11:44:13;;;;;;;8.95;3.10;;;9.10;77.40;;;;;;4916444;29;20028;-82
2020/12/07 11:46:50;;;;;;;7.13;2.92;;;9.10;77.50;;;;;;4887168;29;20064;-84
2020/12/07 11:49:16;;;;;;;7.60;3.20;;;9.20;77.70;;;;;;4900127;29;20068;-84
2020/12/07 11:51:42;;;;;;;6.47;2.95;;;9.20;77.50;;;;;;4899811;29;20024;-84
2020/12/07 11:54:08;;;;;;;7.10;3.00;;;9.20;77.70;;;;;;4899566;29;20448;-83
2020/12/07 11:56:38;;;;;;;7.43;3.08;;;9.20;77.40;;;;;;4900454;29;20031;-84
2020/12/07 11:59:05;;;;;;;9.35;3.53;;;9.10;76.40;;;;;;4899638;29;20102;-83
2020/12/07 12:01:32;;;;;;;7.50;2.95;;;9.00;76.40;;;;;;4899853;29;20421;-84
2020/12/07 12:03:59;;;;;;;7.70;3.20;;;8.90;76.70;;;;;;4899873;29;20450;-82
2020/12/07 12:06:30;;;;;;;6.88;3.20;;;8.90;77.20;;;;;;4899670;29;20036;-83
2020/12/07 12:08:57;;;;;;;7.40;2.90;;;8.80;77.20;;;;;;4899850;29;20024;-84
2020/12/07 12:11:32;;;;;;;7.47;2.78;;;8.90;77.50;;;;;;4899585;29;20034;-82
2020/12/07 12:13:58;;;;;;;7.53;3.00;;;9.10;77.60;;;;;;4899592;29;20118;-83
2020/12/07 12:16:27;;;;;;;6.40;2.90;;;9.00;77.30;;;;;;4899389;29;20075;-82
2020/12/07 12:18:56;;;;;;;8.20;2.80;;;9.10;77.50;;;;;;4900333;29;20044;-82
2020/12/07 12:21:23;;;;;;;6.78;2.80;;;9.10;77.40;;;;;;4902561;29;20036;-83
2020/12/07 12:23:48;;;;;;;7.50;2.85;;;9.20;77.40;;;;;;4905886;29;20051;-83
2020/12/07 12:26:15;;;;;;;7.10;2.60;;;9.30;77.60;;;;;;4904142;29;20025;-83
2020/12/07 12:28:40;;;;;;;5.65;2.55;;;9.30;77.20;;;;;;4899331;29;20506;-83
2020/12/07 12:31:06;;;;;;;7.30;2.72;;;9.30;77.20;;;;;;4899878;29;20115;-83
2020/12/07 12:33:32;;;;;;;6.72;2.50;;;9.30;76.10;;;;;;4899638;29;20473;-83
2020/12/07 12:36:02;;;;;;;6.53;2.70;;;9.10;76.70;;;;;;4898984;29;20086;-83
2020/12/07 12:38:28;;;;;;;7.22;2.97;;;9.10;77.00;;;;;;4899822;29;20029;-86
2020/12/07 12:40:56;;;;;;;6.43;2.70;;;9.10;77.00;;;;;;4891571;29;20091;-84
2020/12/07 12:43:21;;;;;;;5.10;2.30;;;9.20;77.00;;;;;;4901590;29;20139;-82
2020/12/07 12:45:47;;;;;;;5.88;2.58;;;9.10;76.60;;;;;;4914774;29;20111;-84
2020/12/07 12:48:15;;;;;;;5.53;2.63;;;9.10;77.00;;;;;;4899837;29;20028;-83
2020/12/07 12:50:41;;;;;;;6.25;2.58;;;9.20;76.70;;;;;;4902548;29;20028;-84
2020/12/07 12:53:09;;;;;;;6.32;2.45;;;9.30;77.40;;;;;;4894182;29;20028;-85
2020/12/07 12:55:34;;;;;;;6.45;2.60;;;9.30;77.40;;;;;;4903577;29;20043;-85
2020/12/07 12:58:00;;;;;;;5.38;2.28;;;9.30;76.80;;;;;;4902744;29;20024;-86
2020/12/07 13:00:26;;;;;;;5.97;2.40;;;9.30;76.40;;;;;;4903155;29;20385;-85
2020/12/07 13:02:51;;;;;;;7.45;2.63;;;9.30;76.70;;;;;;4918094;29;20032;-85
2020/12/07 13:05:20;;;;;;;6.63;2.53;;;9.40;76.60;;;;;;4902579;29;20032;-86
2020/12/07 13:07:46;;;;;;;5.65;2.42;;;9.20;76.00;;;;;;4903546;29;20016;-86
2020/12/07 13:10:11;;;;;;;6.03;2.83;;;9.00;75.60;;;;;;4894237;29;20087;-87
2020/12/07 13:12:37;;;;;;;7.85;2.67;;;8.60;75.10;;;;;;4902565;29;20123;-86
2020/12/07 13:15:03;;;;;;;8.07;3.00;;;8.80;75.80;;;;;;4901773;29;20084;-85
2020/12/07 13:17:32;;;;;;;7.45;2.97;;;8.70;76.10;;;;;;4902277;29;20032;-84
2020/12/07 13:20:03;;;;;;;7.45;3.03;;;8.50;76.10;;;;;;4886877;29;20055;-81
2020/12/07 13:22:38;;;;;;;7.07;2.80;;;8.50;75.20;;;;;;4901911;29;20028;-81
2020/12/07 13:25:10;;;;;;;7.28;2.70;;;8.50;75.70;;;;;;4888599;29;20031;-81
2020/12/07 13:30:04;;;;;;;7.00;2.35;;;8.10;75.10;;;;;;4918458;29;20063;-81
2020/12/07 13:32:30;;;;;;;6.63;2.40;;;8.10;75.60;;;;;;4923727;29;20028;-82
2020/12/07 13:34:55;;;;;;;8.45;2.60;;;8.00;75.60;;;;;;4901537;29;20032;-82
2020/12/07 13:37:21;;;;;;;6.18;2.55;;;8.00;75.50;;;;;;4901973;29;20024;-82